X  Fermer Données météorologiques d'aviation de Metar     EHKD De Kooy Airport
Température
41°F Température
39°F Point de rosée
93% Humidité



Vent
2 MPH
3 KM/H
1 M/S
2 KTS



30°
NNE
Conditions actuelles

Brouillard Brouillard
Pression 998.98 (hPa) - 29.5 (inHg)
Visibilité 5 (mile) - 8 (km)
Aéroport
Code de l'aéroport EHKD

Emplacement: De Kooy Airport
Distance: 34 (mi)

Metar:
EHKD 250815Z AUTO 03002KT 8000 BR FEW005 SCT007 OVC034 05/04 Q0999 GRN NOSIG

Temps: 25-02-2024 09:15 CET